Time;durP1;ratioP1;P1;durP2;ratioP2;P2;SDS_P1;SDS_P2;PMS_P1;PMS_P2;Temp;Humidity;BMP_temperature;BMP_pressure;BME280_temperature;BME280_humidity;BME280_pressure;Samples;Min_cycle;Max_cycle;Signal;HPM_P1;HPM_P2
2021/04/30 00:01:55;;;;;;;25.65;22.48;;;11.10;99.90;;;;;;1863499;75;21090;-76
2021/04/30 00:04:23;;;;;;;28.60;24.98;;;11.10;99.90;;;;;;1868834;75;21516;-76
2021/04/30 00:06:50;;;;;;;26.93;23.05;;;11.10;99.90;;;;;;1867670;75;21071;-76
2021/04/30 00:09:18;;;;;;;28.07;24.85;;;11.10;99.90;;;;;;1869133;75;21063;-76
2021/04/30 00:11:49;;;;;;;27.62;24.20;;;11.00;99.90;;;;;;1869229;75;21126;-75
2021/04/30 00:14:14;;;;;;;30.80;25.43;;;11.00;99.90;;;;;;1860051;75;21133;-76
2021/04/30 00:16:42;;;;;;;26.77;23.95;;;11.00;99.90;;;;;;1865761;75;21666;-76
2021/04/30 00:19:09;;;;;;;28.10;24.82;;;11.00;99.90;;;;;;1863280;75;21093;-76
2021/04/30 00:21:37;;;;;;;26.55;23.75;;;11.00;99.90;;;;;;1861012;76;21149;-76
2021/04/30 00:24:09;;;;;;;29.82;25.37;;;10.90;99.90;;;;;;1869023;75;21062;-76
2021/04/30 00:26:37;;;;;;;33.73;27.40;;;11.00;99.90;;;;;;1868914;75;21656;-76
2021/04/30 00:29:04;;;;;;;32.03;27.13;;;10.90;99.90;;;;;;1871861;75;22815;-76
2021/04/30 00:31:32;;;;;;;30.72;27.15;;;10.90;99.90;;;;;;1869035;75;21169;-76
2021/04/30 00:34:01;;;;;;;33.05;29.45;;;11.00;99.90;;;;;;1865397;76;21094;-76
2021/04/30 00:36:28;;;;;;;32.85;29.37;;;11.00;99.90;;;;;;1871259;75;21086;-76
2021/04/30 00:38:56;;;;;;;35.08;28.75;;;11.00;99.90;;;;;;1862301;75;21129;-76
2021/04/30 00:41:24;;;;;;;33.58;27.82;;;11.00;99.90;;;;;;1867124;75;21003;-76
2021/04/30 00:43:52;;;;;;;32.10;27.40;;;11.00;99.90;;;;;;1869547;75;21034;-75
2021/04/30 00:46:19;;;;;;;31.80;28.35;;;11.00;99.90;;;;;;1870828;75;21101;-75
2021/04/30 00:48:47;;;;;;;30.32;27.10;;;11.00;99.90;;;;;;1873484;75;21564;-76
2021/04/30 00:51:14;;;;;;;30.35;26.55;;;10.90;99.90;;;;;;1866934;75;21112;-76
2021/04/30 00:53:42;;;;;;;32.80;27.80;;;10.80;99.90;;;;;;1867537;75;21089;-76
2021/04/30 00:56:09;;;;;;;29.80;26.27;;;10.80;99.90;;;;;;1867593;75;21144;-76
2021/04/30 00:58:37;;;;;;;30.35;26.07;;;10.80;99.90;;;;;;1870013;75;21568;-76
2021/04/30 01:01:04;;;;;;;30.75;24.82;;;10.80;99.90;;;;;;1869607;75;21674;-76
2021/04/30 01:03:32;;;;;;;30.90;25.48;;;10.90;99.90;;;;;;1864737;75;21034;-76
2021/04/30 01:05:59;;;;;;;29.98;25.17;;;10.90;99.90;;;;;;1867680;75;21106;-75
2021/04/30 01:08:27;;;;;;;30.90;25.45;;;11.00;99.90;;;;;;1871993;75;21634;-76
2021/04/30 01:10:54;;;;;;;29.55;25.80;;;11.00;99.90;;;;;;1867131;75;21090;-76
2021/04/30 01:13:22;;;;;;;29.27;24.52;;;11.00;99.90;;;;;;1866717;75;21038;-76
2021/04/30 01:15:49;;;;;;;27.73;24.63;;;11.00;99.90;;;;;;1867447;75;21681;-76
2021/04/30 01:18:17;;;;;;;27.02;24.18;;;11.00;99.90;;;;;;1867532;75;21203;-76
2021/04/30 01:20:44;;;;;;;26.25;23.47;;;11.00;99.90;;;;;;1877716;75;21474;-76
2021/04/30 01:23:12;;;;;;;27.87;24.23;;;11.00;99.90;;;;;;1864844;76;21027;-76
2021/04/30 01:25:39;;;;;;;27.80;24.65;;;11.00;99.90;;;;;;1866965;75;21093;-76
2021/04/30 01:28:08;;;;;;;27.90;24.52;;;11.00;99.90;;;;;;1873235;75;21118;-76
2021/04/30 01:30:39;;;;;;;26.97;24.18;;;11.00;99.90;;;;;;1866246;75;21172;-76
2021/04/30 01:33:16;;;;;;;30.45;24.87;;;11.00;99.90;;;;;;1870482;75;21156;-76
2021/04/30 01:35:44;;;;;;;32.65;25.12;;;11.00;99.90;;;;;;1867462;75;21156;-76
2021/04/30 01:38:11;;;;;;;30.60;24.10;;;10.90;99.90;;;;;;1865803;75;21099;-76
2021/04/30 01:40:40;;;;;;;26.87;23.98;;;10.90;99.90;;;;;;1862332;76;21196;-76
2021/04/30 01:43:10;;;;;;;31.00;25.62;;;10.90;99.90;;;;;;1866279;75;21572;-76
2021/04/30 01:45:43;;;;;;;31.37;25.30;;;11.00;99.90;;;;;;1867520;75;21157;-76
2021/04/30 01:48:13;;;;;;;29.60;25.25;;;11.10;99.90;;;;;;1867660;75;21482;-76
2021/04/30 01:50:45;;;;;;;29.63;26.02;;;11.10;99.90;;;;;;1874975;75;21726;-76
2021/04/30 01:53:16;;;;;;;33.90;26.50;;;11.10;99.90;;;;;;1866949;75;21054;-76
2021/04/30 01:55:43;;;;;;;31.57;25.82;;;11.00;99.90;;;;;;1866893;75;21129;-76
2021/04/30 01:58:11;;;;;;;31.45;27.00;;;11.00;99.90;;;;;;1869149;75;21113;-76
2021/04/30 02:00:39;;;;;;;32.33;27.82;;;10.90;99.90;;;;;;1860024;75;21614;-76
2021/04/30 02:03:07;;;;;;;32.98;28.32;;;11.00;99.90;;;;;;1867152;75;21055;-76
2021/04/30 02:05:35;;;;;;;31.35;26.48;;;11.00;99.90;;;;;;1872513;75;21090;-76
2021/04/30 02:08:06;;;;;;;33.55;26.12;;;10.90;99.90;;;;;;1860155;75;21225;-76
2021/04/30 02:10:34;;;;;;;33.05;27.77;;;11.00;99.90;;;;;;1876946;75;21085;-76
2021/04/30 02:13:03;;;;;;;35.95;28.62;;;11.00;99.90;;;;;;1867323;75;21172;-75
2021/04/30 02:15:33;;;;;;;31.90;27.58;;;11.00;99.90;;;;;;1867205;75;21127;-76
2021/04/30 02:18:01;;;;;;;32.65;27.00;;;10.90;99.90;;;;;;1863461;75;21161;-75
2021/04/30 02:20:29;;;;;;;35.25;27.67;;;11.00;99.90;;;;;;1870093;75;21098;-77
2021/04/30 02:22:57;;;;;;;32.00;27.48;;;10.90;99.90;;;;;;1863502;75;21179;-76
2021/04/30 02:25:25;;;;;;;33.13;28.15;;;10.90;99.90;;;;;;1864740;75;21278;-76
2021/04/30 02:27:54;;;;;;;36.70;28.50;;;10.80;99.90;;;;;;1867972;75;21599;-76
2021/04/30 02:30:23;;;;;;;34.43;28.75;;;10.80;99.90;;;;;;1871217;75;21071;-76
2021/04/30 02:32:52;;;;;;;39.92;30.57;;;10.70;99.90;;;;;;1873662;75;21195;-76
2021/04/30 02:35:25;;;;;;;39.67;29.80;;;10.70;99.90;;;;;;1863947;75;21117;-76
2021/04/30 02:37:54;;;;;;;37.35;31.52;;;10.70;99.90;;;;;;1866849;76;21636;-76
2021/04/30 02:40:26;;;;;;;36.58;31.05;;;10.70;99.90;;;;;;1860653;76;21091;-76
2021/04/30 02:43:02;;;;;;;39.33;32.05;;;10.60;99.90;;;;;;1869192;75;21199;-76
2021/04/30 02:45:30;;;;;;;38.42;31.37;;;10.60;99.90;;;;;;1872245;75;21099;-75
2021/04/30 02:48:00;;;;;;;39.88;31.02;;;10.60;99.90;;;;;;1864793;75;21657;-76
2021/04/30 02:50:30;;;;;;;36.25;29.92;;;10.60;99.90;;;;;;1864528;75;21043;-76
2021/04/30 02:52:58;;;;;;;35.50;30.30;;;10.60;99.90;;;;;;1868679;75;21038;-77
2021/04/30 02:55:26;;;;;;;36.88;31.48;;;10.60;99.90;;;;;;1864294;76;21472;-76
2021/04/30 02:57:55;;;;;;;39.60;32.98;;;10.60;99.90;;;;;;1866341;75;21070;-76
2021/04/30 03:00:24;;;;;;;37.33;31.55;;;10.60;99.90;;;;;;1866231;75;21211;-76
2021/04/30 03:02:52;;;;;;;38.53;31.95;;;10.50;99.90;;;;;;1863271;75;21106;-76
2021/04/30 03:05:20;;;;;;;42.17;32.23;;;10.50;99.90;;;;;;1874786;75;21246;-77
2021/04/30 03:07:48;;;;;;;37.05;31.17;;;10.40;99.90;;;;;;1866079;75;21111;-77
2021/04/30 03:10:17;;;;;;;37.17;30.82;;;10.40;99.90;;;;;;1872672;75;21653;-77
2021/04/30 03:12:46;;;;;;;40.55;31.97;;;10.30;99.90;;;;;;1866829;75;21191;-76
2021/04/30 03:15:15;;;;;;;37.10;31.82;;;10.30;99.90;;;;;;1863984;75;21154;-76
2021/04/30 03:17:44;;;;;;;38.13;32.75;;;10.30;99.90;;;;;;1865146;75;21141;-76
2021/04/30 03:20:12;;;;;;;38.92;31.85;;;10.20;99.90;;;;;;1869247;75;21106;-76
2021/04/30 03:22:40;;;;;;;35.45;31.55;;;10.20;99.90;;;;;;1866602;75;21105;-76
2021/04/30 03:25:09;;;;;;;40.80;31.95;;;10.20;99.90;;;;;;1864053;75;22062;-77
2021/04/30 03:27:37;;;;;;;37.23;32.10;;;10.20;99.90;;;;;;1825381;76;21137;-76
2021/04/30 03:30:06;;;;;;;36.70;30.25;;;10.20;99.90;;;;;;1861923;75;21098;-76
2021/04/30 03:32:35;;;;;;;37.45;31.97;;;10.10;99.90;;;;;;1865182;75;21050;-77
2021/04/30 03:35:04;;;;;;;37.90;32.25;;;10.10;99.90;;;;;;1861975;75;21101;-76
2021/04/30 03:37:33;;;;;;;39.03;32.88;;;10.10;99.90;;;;;;1871335;75;21090;-76
2021/04/30 03:40:00;;;;;;;39.05;32.93;;;10.10;99.90;;;;;;1861610;76;21176;-76
2021/04/30 03:42:28;;;;;;;41.63;34.40;;;10.10;99.90;;;;;;1867123;75;21056;-76
2021/04/30 03:44:55;;;;;;;40.95;34.10;;;10.00;99.90;;;;;;1869678;75;21085;-76
2021/04/30 03:47:23;;;;;;;40.00;32.88;;;10.00;99.90;;;;;;1861623;76;21137;-76
2021/04/30 03:49:50;;;;;;;39.85;31.85;;;10.00;99.90;;;;;;1868792;75;21137;-76
2021/04/30 03:52:18;;;;;;;38.02;31.40;;;10.00;99.90;;;;;;1866421;75;21062;-76
2021/04/30 03:54:45;;;;;;;44.33;33.28;;;9.90;99.90;;;;;;1864745;75;21117;-76
2021/04/30 03:57:13;;;;;;;41.08;34.38;;;9.90;99.90;;;;;;1871388;75;21198;-76
2021/04/30 03:59:40;;;;;;;41.95;34.45;;;9.90;99.90;;;;;;1867435;75;21621;-76
2021/04/30 04:02:08;;;;;;;45.78;35.05;;;9.90;99.90;;;;;;1873912;75;21082;-75
2021/04/30 04:04:35;;;;;;;42.25;34.50;;;9.80;99.90;;;;;;1870054;75;21097;-76
2021/04/30 04:07:03;;;;;;;46.37;37.80;;;9.90;99.90;;;;;;1863643;75;21211;-75
2021/04/30 04:09:30;;;;;;;49.80;37.42;;;9.80;99.90;;;;;;1960751;71;21086;-78
2021/04/30 04:11:58;;;;;;;47.88;37.17;;;9.80;99.90;;;;;;1983123;72;21066;-78
2021/04/30 04:14:25;;;;;;;44.85;38.17;;;9.80;99.90;;;;;;1979107;72;21671;-78
2021/04/30 04:16:52;;;;;;;46.33;36.50;;;9.80;99.90;;;;;;1981575;72;21191;-78
2021/04/30 04:19:20;;;;;;;46.90;38.23;;;9.90;99.90;;;;;;1962392;72;21109;-78
2021/04/30 04:21:47;;;;;;;42.33;35.20;;;9.90;99.90;;;;;;1951319;72;21133;-79
2021/04/30 04:24:16;;;;;;;43.70;36.55;;;9.80;99.90;;;;;;1949819;72;21097;-76
2021/04/30 04:26:44;;;;;;;43.52;35.48;;;9.80;99.90;;;;;;1950508;72;21384;-76
2021/04/30 04:29:11;;;;;;;44.93;37.03;;;9.80;99.90;;;;;;1950983;72;21109;-77
2021/04/30 04:31:39;;;;;;;46.88;35.50;;;9.80;99.90;;;;;;1950569;72;21076;-76
2021/04/30 04:34:06;;;;;;;41.60;34.95;;;9.80;99.90;;;;;;1950349;72;21092;-76
2021/04/30 04:36:34;;;;;;;42.08;33.53;;;9.80;99.90;;;;;;1952226;72;21215;-76
2021/04/30 04:39:01;;;;;;;41.83;34.95;;;9.80;99.90;;;;;;1956700;72;21239;-76
2021/04/30 04:41:29;;;;;;;48.87;37.83;;;9.80;99.90;;;;;;1952758;72;21077;-76
2021/04/30 04:43:56;;;;;;;42.48;35.23;;;9.80;99.90;;;;;;1951477;72;21665;-77
2021/04/30 04:46:24;;;;;;;42.13;34.78;;;9.80;99.90;;;;;;1950808;72;21136;-77
2021/04/30 04:48:51;;;;;;;44.00;34.67;;;9.80;99.90;;;;;;1955410;72;21153;-76
2021/04/30 04:51:19;;;;;;;42.88;35.50;;;9.80;99.90;;;;;;1953528;72;21061;-76
2021/04/30 04:53:46;;;;;;;41.42;34.50;;;9.80;99.90;;;;;;1955822;72;21101;-76
2021/04/30 04:56:14;;;;;;;44.00;36.42;;;9.90;99.90;;;;;;1956019;72;21109;-77
2021/04/30 04:58:41;;;;;;;44.20;36.70;;;9.90;99.90;;;;;;1956485;72;21094;-76
2021/04/30 05:01:09;;;;;;;49.08;40.03;;;9.90;99.90;;;;;;1954784;72;21159;-76
2021/04/30 05:03:36;;;;;;;50.65;39.80;;;10.00;99.90;;;;;;1949199;72;21598;-75
2021/04/30 05:06:05;;;;;;;49.18;39.88;;;10.00;99.90;;;;;;1948168;72;21146;-75
2021/04/30 05:08:32;;;;;;;50.17;40.12;;;10.10;99.90;;;;;;1950852;72;21294;-75
2021/04/30 05:11:00;;;;;;;50.45;40.63;;;10.10;99.90;;;;;;1946800;72;21072;-74
2021/04/30 05:13:28;;;;;;;47.15;39.48;;;10.10;99.90;;;;;;1953425;72;21184;-74
2021/04/30 05:15:55;;;;;;;51.90;41.53;;;10.20;99.90;;;;;;1949708;72;21093;-74
2021/04/30 05:18:23;;;;;;;48.98;39.08;;;10.30;99.90;;;;;;1950185;72;21117;-74
2021/04/30 05:20:51;;;;;;;51.30;40.28;;;10.40;99.90;;;;;;1949695;72;21484;-74
2021/04/30 05:23:18;;;;;;;51.20;40.63;;;10.40;99.90;;;;;;1954400;72;21500;-74
2021/04/30 05:25:47;;;;;;;49.18;39.08;;;10.50;99.90;;;;;;1950872;72;21555;-74
2021/04/30 05:28:14;;;;;;;52.25;39.05;;;10.60;99.90;;;;;;1948641;72;21117;-75
2021/04/30 05:30:42;;;;;;;50.05;40.05;;;10.60;99.90;;;;;;1955572;72;21394;-78
2021/04/30 05:33:10;;;;;;;48.40;36.68;;;10.70;99.90;;;;;;1956758;72;21043;-78
2021/04/30 05:35:37;;;;;;;42.93;35.70;;;10.80;99.90;;;;;;1951746;72;21066;-74
2021/04/30 05:38:05;;;;;;;39.33;34.35;;;10.80;99.90;;;;;;1949805;72;21066;-75
2021/04/30 05:40:34;;;;;;;41.77;33.98;;;10.90;99.90;;;;;;1953980;72;21100;-76
2021/04/30 05:43:01;;;;;;;40.15;33.02;;;11.00;99.90;;;;;;1960285;72;21093;-83
2021/04/30 05:45:29;;;;;;;38.35;31.77;;;11.10;99.90;;;;;;1951162;72;21030;-82
2021/04/30 05:47:57;;;;;;;36.55;30.88;;;11.10;99.90;;;;;;1954902;72;21182;-81
2021/04/30 05:50:24;;;;;;;37.93;31.25;;;11.20;99.90;;;;;;1951567;72;21057;-78
2021/04/30 05:52:52;;;;;;;40.23;31.97;;;11.20;99.90;;;;;;1956010;72;21077;-74
2021/04/30 05:55:19;;;;;;;41.65;31.93;;;11.30;99.90;;;;;;1952608;72;21081;-75
2021/04/30 05:57:47;;;;;;;34.92;31.23;;;11.30;99.90;;;;;;1949219;72;21070;-76
2021/04/30 06:00:14;;;;;;;33.40;29.30;;;11.30;99.90;;;;;;1961088;72;21073;-79
2021/04/30 06:02:42;;;;;;;35.85;28.98;;;11.40;99.90;;;;;;1956808;72;21074;-76
2021/04/30 06:05:10;;;;;;;31.62;28.25;;;11.40;99.90;;;;;;1948996;72;21022;-76
2021/04/30 06:07:37;;;;;;;34.23;28.47;;;11.40;99.90;;;;;;1949932;72;21320;-76
2021/04/30 06:10:05;;;;;;;33.50;28.87;;;11.50;99.90;;;;;;1953462;72;21130;-76
2021/04/30 06:12:34;;;;;;;33.92;27.98;;;11.50;99.90;;;;;;1950129;72;21128;-75
2021/04/30 06:15:02;;;;;;;31.45;27.02;;;11.50;99.90;;;;;;1954032;72;21077;-76
2021/04/30 06:17:30;;;;;;;30.02;26.30;;;11.50;99.90;;;;;;1950139;72;21607;-76
2021/04/30 06:19:57;;;;;;;30.30;25.25;;;11.50;99.90;;;;;;1953108;72;21109;-76
2021/04/30 06:22:25;;;;;;;30.27;25.95;;;11.50;99.90;;;;;;1956210;72;21086;-76
2021/04/30 06:24:53;;;;;;;27.50;24.57;;;11.60;99.90;;;;;;1955561;72;21101;-75
2021/04/30 06:27:20;;;;;;;26.97;23.83;;;11.50;99.90;;;;;;1950309;72;21128;-76
2021/04/30 06:29:48;;;;;;;26.97;24.00;;;11.50;99.90;;;;;;1950459;72;21571;-75
2021/04/30 06:32:15;;;;;;;30.68;25.30;;;11.50;99.90;;;;;;1952658;72;21551;-75
2021/04/30 06:34:43;;;;;;;29.48;24.77;;;11.50;99.90;;;;;;1951184;72;21226;-75
2021/04/30 06:37:10;;;;;;;27.10;23.67;;;11.50;99.90;;;;;;1951168;72;21457;-74
2021/04/30 06:39:39;;;;;;;24.72;21.95;;;11.60;99.90;;;;;;1954534;72;21120;-75
2021/04/30 06:42:07;;;;;;;26.52;21.75;;;11.60;99.90;;;;;;1951887;72;21194;-77
2021/04/30 06:44:34;;;;;;;27.62;22.15;;;11.60;99.90;;;;;;1954734;72;21128;-77
2021/04/30 06:47:02;;;;;;;25.02;22.07;;;11.60;99.90;;;;;;1956498;72;21050;-77
2021/04/30 06:49:29;;;;;;;27.07;23.40;;;11.60;99.90;;;;;;1955294;72;21083;-77
2021/04/30 06:51:57;;;;;;;27.02;23.83;;;11.60;99.90;;;;;;1952336;72;21089;-77
2021/04/30 06:54:24;;;;;;;26.05;22.13;;;11.60;99.90;;;;;;1948907;72;21089;-78
2021/04/30 06:56:52;;;;;;;26.42;22.77;;;11.50;99.90;;;;;;1956265;72;21214;-77
2021/04/30 06:59:19;;;;;;;27.70;23.45;;;11.70;99.90;;;;;;1951565;72;21132;-77
2021/04/30 07:01:47;;;;;;;26.82;23.83;;;11.80;99.90;;;;;;1952272;72;21229;-74
2021/04/30 07:04:15;;;;;;;26.55;22.17;;;11.80;99.90;;;;;;1951579;72;21121;-74
2021/04/30 07:06:42;;;;;;;27.30;22.98;;;11.90;99.90;;;;;;1953134;72;21096;-74
2021/04/30 07:09:10;;;;;;;25.52;22.73;;;11.90;99.90;;;;;;1954894;72;21174;-76
2021/04/30 07:11:37;;;;;;;25.15;22.45;;;11.90;99.90;;;;;;1954396;72;21551;-77
2021/04/30 07:14:05;;;;;;;25.62;22.52;;;12.00;99.90;;;;;;1953405;72;22152;-76
2021/04/30 07:16:33;;;;;;;24.85;22.13;;;12.10;99.90;;;;;;1953185;72;21656;-77
2021/04/30 07:19:00;;;;;;;24.72;21.60;;;12.10;99.90;;;;;;1951316;72;21411;-76
2021/04/30 07:21:28;;;;;;;24.47;21.80;;;12.10;99.90;;;;;;1952056;72;21107;-76
2021/04/30 07:23:55;;;;;;;23.25;19.87;;;12.10;99.90;;;;;;1945804;72;21178;-75
2021/04/30 07:26:23;;;;;;;23.50;20.85;;;12.10;99.90;;;;;;1954834;72;21337;-76
2021/04/30 07:28:50;;;;;;;23.85;20.80;;;12.30;99.90;;;;;;1949138;72;21057;-76
2021/04/30 07:31:18;;;;;;;26.37;21.33;;;12.40;99.90;;;;;;1953226;72;21069;-78
2021/04/30 07:33:48;;;;;;;25.10;21.17;;;12.40;99.90;;;;;;1954410;72;21069;-75
2021/04/30 07:36:17;;;;;;;21.85;19.55;;;12.40;99.90;;;;;;1952514;72;21110;-76
2021/04/30 07:38:44;;;;;;;20.12;17.73;;;12.60;99.90;;;;;;1954908;72;21061;-75
2021/04/30 07:41:12;;;;;;;20.08;17.37;;;12.60;99.90;;;;;;1955681;72;21139;-76
2021/04/30 07:43:41;;;;;;;19.25;17.02;;;12.80;99.90;;;;;;1950675;72;21531;-76
2021/04/30 07:46:09;;;;;;;19.20;16.23;;;12.90;99.90;;;;;;1955401;72;21133;-77
2021/04/30 07:48:38;;;;;;;20.75;17.00;;;12.90;99.90;;;;;;1958478;72;21144;-75
2021/04/30 07:51:06;;;;;;;18.85;16.42;;;13.10;99.90;;;;;;1952436;72;21113;-77
2021/04/30 07:53:34;;;;;;;19.12;15.45;;;12.90;99.90;;;;;;1954853;72;21620;-75
2021/04/30 07:56:02;;;;;;;16.20;14.50;;;12.90;99.90;;;;;;1952299;72;21078;-74
2021/04/30 07:58:30;;;;;;;18.30;14.23;;;12.90;99.90;;;;;;1958237;72;21164;-76
2021/04/30 08:00:59;;;;;;;17.77;15.90;;;13.00;99.90;;;;;;1952009;72;21074;-75
2021/04/30 08:03:27;;;;;;;15.70;14.07;;;13.10;99.90;;;;;;1958642;72;21050;-76
2021/04/30 08:05:55;;;;;;;15.85;14.33;;;13.00;99.90;;;;;;1947801;72;22066;-76
2021/04/30 08:08:23;;;;;;;15.15;12.98;;;13.10;99.90;;;;;;1948840;72;21074;-76
2021/04/30 08:10:50;;;;;;;16.10;14.40;;;13.20;99.90;;;;;;1951156;72;21094;-76
2021/04/30 08:13:18;;;;;;;16.00;14.40;;;13.30;99.90;;;;;;1951990;72;21081;-76
2021/04/30 08:15:46;;;;;;;16.80;15.18;;;13.30;99.90;;;;;;1956862;72;21490;-76
2021/04/30 08:18:14;;;;;;;17.85;15.95;;;13.40;99.90;;;;;;1952575;72;21121;-76
2021/04/30 08:20:42;;;;;;;17.80;15.28;;;13.40;99.90;;;;;;1955639;72;21137;-76
2021/04/30 08:23:10;;;;;;;17.70;15.80;;;13.40;99.90;;;;;;1951668;72;21014;-76
2021/04/30 08:25:37;;;;;;;16.25;14.70;;;13.40;99.90;;;;;;1952920;72;21103;-77
2021/04/30 08:28:05;;;;;;;19.57;15.75;;;13.60;99.90;;;;;;1953484;72;21113;-75
2021/04/30 08:30:33;;;;;;;17.07;14.78;;;13.70;99.90;;;;;;1956366;72;21109;-75
2021/04/30 08:33:00;;;;;;;15.13;13.53;;;13.90;99.90;;;;;;1956272;72;21085;-76
2021/04/30 08:35:29;;;;;;;16.23;14.30;;;14.00;99.90;;;;;;1951704;72;21061;-77
2021/04/30 08:37:58;;;;;;;15.15;13.20;;;14.10;99.90;;;;;;1951121;72;21133;-76
2021/04/30 08:40:28;;;;;;;14.45;12.95;;;13.90;99.90;;;;;;1956939;72;21089;-76
2021/04/30 08:42:58;;;;;;;14.40;12.93;;;13.90;99.90;;;;;;1954486;72;21078;-76
2021/04/30 08:45:27;;;;;;;16.32;12.37;;;14.10;99.90;;;;;;1954009;72;21131;-78
2021/04/30 08:47:55;;;;;;;14.05;12.63;;;14.10;99.90;;;;;;1955392;72;21133;-76
2021/04/30 08:50:22;;;;;;;14.25;12.75;;;13.80;99.90;;;;;;1958729;72;21644;-76
2021/04/30 08:52:50;;;;;;;14.78;12.28;;;13.80;99.90;;;;;;1958865;72;22085;-78
2021/04/30 08:55:18;;;;;;;14.98;13.13;;;13.80;99.90;;;;;;1950588;72;21616;-76
2021/04/30 08:57:52;;;;;;;14.00;12.47;;;13.70;99.90;;;;;;1951026;72;21101;-78
2021/04/30 09:00:17;;;;;;;14.50;13.05;;;13.60;99.90;;;;;;1955600;72;21066;-77
2021/04/30 09:02:44;;;;;;;15.03;12.78;;;13.70;99.90;;;;;;1958679;72;21082;-78
2021/04/30 09:05:14;;;;;;;13.83;11.85;;;13.70;99.90;;;;;;1954081;72;21062;-77
2021/04/30 09:07:43;;;;;;;14.30;12.82;;;13.70;99.90;;;;;;1954277;72;21081;-76
2021/04/30 09:10:13;;;;;;;16.93;12.70;;;13.60;99.90;;;;;;1951155;72;21089;-78
2021/04/30 09:12:48;;;;;;;15.65;12.68;;;13.60;99.90;;;;;;1951740;72;21085;-77
2021/04/30 09:15:21;;;;;;;14.47;12.98;;;13.60;99.90;;;;;;1950864;72;21604;-77
2021/04/30 09:17:49;;;;;;;14.80;12.70;;;13.70;99.90;;;;;;1948074;72;21182;-78
2021/04/30 09:20:17;;;;;;;13.13;11.73;;;13.60;99.90;;;;;;1954664;72;21101;-78
2021/04/30 09:22:44;;;;;;;13.32;12.03;;;13.40;99.90;;;;;;1951404;72;21101;-78
2021/04/30 09:25:18;;;;;;;13.35;12.00;;;13.40;99.90;;;;;;1958747;72;21025;-76
2021/04/30 09:27:48;;;;;;;12.58;11.22;;;13.60;99.90;;;;;;1949705;72;21104;-78
2021/04/30 09:30:25;;;;;;;13.22;11.83;;;13.60;99.90;;;;;;1952549;72;21414;-78
2021/04/30 09:33:05;;;;;;;13.10;11.80;;;13.60;99.90;;;;;;1952155;72;21086;-78
2021/04/30 09:35:34;;;;;;;13.08;11.75;;;13.60;99.90;;;;;;1951779;72;21214;-77
2021/04/30 09:38:20;;;;;;;13.88;11.60;;;13.70;99.90;;;;;;1953236;72;21215;-77
2021/04/30 09:40:49;;;;;;;13.15;11.65;;;13.80;99.90;;;;;;1952807;72;21745;-78
2021/04/30 09:43:18;;;;;;;13.25;11.85;;;13.80;99.90;;;;;;1957626;72;21031;-77
2021/04/30 09:45:46;;;;;;;13.08;11.75;;;13.70;99.90;;;;;;1957664;72;21093;-78
2021/04/30 09:48:15;;;;;;;13.68;12.03;;;13.70;99.90;;;;;;1949159;72;21085;-77
2021/04/30 09:50:44;;;;;;;13.05;11.75;;;13.80;99.90;;;;;;1951184;72;21140;-76
2021/04/30 09:53:17;;;;;;;13.00;11.70;;;13.90;99.90;;;;;;1955362;72;21101;-77
2021/04/30 09:55:47;;;;;;;13.70;12.40;;;13.90;99.90;;;;;;1954703;72;21167;-77
2021/04/30 09:58:20;;;;;;;13.18;11.78;;;13.90;99.90;;;;;;1949529;72;21253;-79
2021/04/30 10:00:50;;;;;;;13.40;12.10;;;13.80;99.90;;;;;;1954482;72;21472;-77
2021/04/30 10:03:26;;;;;;;13.15;11.53;;;13.70;99.90;;;;;;1956184;72;21358;-76
2021/04/30 10:06:17;;;;;;;13.62;11.28;;;13.70;99.90;;;;;;1951350;72;21136;-76
2021/04/30 10:08:41;;;;;;;13.35;11.25;;;14.00;99.90;;;;;;1950808;72;21116;-75
2021/04/30 10:11:31;;;;;;;11.63;10.43;;;14.40;99.90;;;;;;1955400;72;21548;-75
2021/04/30 10:13:59;;;;;;;10.95;9.85;;;14.40;99.90;;;;;;1955855;72;21120;-76
2021/04/30 10:16:27;;;;;;;11.33;10.08;;;14.30;99.90;;;;;;1955855;72;21587;-76
2021/04/30 10:18:54;;;;;;;11.05;9.58;;;14.60;99.90;;;;;;1947515;72;21102;-75
2021/04/30 10:21:22;;;;;;;10.43;9.28;;;14.70;99.90;;;;;;1952488;72;21175;-75
2021/04/30 10:23:51;;;;;;;11.40;10.15;;;14.80;99.90;;;;;;1953335;72;21586;-76
2021/04/30 10:26:21;;;;;;;11.00;9.58;;;14.80;99.90;;;;;;1959293;72;21128;-75
2021/04/30 10:28:53;;;;;;;11.90;10.72;;;14.80;99.90;;;;;;1951065;72;21085;-78
2021/04/30 10:31:29;;;;;;;12.33;10.28;;;14.80;99.90;;;;;;1953979;72;21010;-77
2021/04/30 10:34:12;;;;;;;11.95;10.25;;;14.80;99.90;;;;;;1954411;72;21053;-77
2021/04/30 10:36:43;;;;;;;;;;;14.70;99.90;;;;;;1952919;72;21154;-77
2021/04/30 10:39:12;;;;;;;13.55;8.85;;;14.70;99.90;;;;;;1955240;72;20225;-76
2021/04/30 10:41:42;;;;;;;9.33;8.33;;;14.80;99.90;;;;;;1954097;72;21074;-79
2021/04/30 10:44:21;;;;;;;9.40;7.90;;;14.80;99.90;;;;;;1959246;72;21028;-78
2021/04/30 10:46:53;;;;;;;9.33;8.43;;;14.80;99.90;;;;;;1947818;72;21127;-79
2021/04/30 10:49:23;;;;;;;7.75;7.05;;;14.70;99.90;;;;;;1956141;72;21148;-78
2021/04/30 10:52:16;;;;;;;8.45;6.75;;;14.70;99.90;;;;;;1952010;72;21023;-79
2021/04/30 10:54:40;;;;;;;7.53;6.75;;;14.80;99.90;;;;;;1958229;72;21162;-81
2021/04/30 10:57:10;;;;;;;6.97;6.28;;;14.70;99.90;;;;;;1952885;72;21097;-81
2021/04/30 10:59:40;;;;;;;9.10;6.53;;;14.70;99.90;;;;;;1949330;72;21100;-77
2021/04/30 11:02:26;;;;;;;8.00;6.62;;;14.60;99.90;;;;;;1956742;72;21050;-74
2021/04/30 11:05:10;;;;;;;8.63;6.47;;;14.70;99.90;;;;;;1953941;72;21201;-76
2021/04/30 11:07:51;;;;;;;7.45;6.37;;;14.80;99.90;;;;;;1953213;72;21127;-77
2021/04/30 11:10:31;;;;;;;6.47;5.87;;;14.90;99.90;;;;;;1947994;72;21088;-77
2021/04/30 11:13:07;;;;;;;6.53;5.80;;;15.10;99.90;;;;;;1958609;72;21112;-76
2021/04/30 11:15:47;;;;;;;6.20;5.60;;;15.10;99.90;;;;;;1953401;72;21589;-75
2021/04/30 11:18:21;;;;;;;6.33;5.37;;;15.30;99.90;;;;;;1957594;72;21405;-75
2021/04/30 11:21:18;;;;;;;8.48;6.08;;;15.30;99.90;;;;;;1950558;72;21170;-75
2021/04/30 11:23:46;;;;;;;6.78;6.08;;;15.40;99.90;;;;;;1952645;72;21085;-76
2021/04/30 11:26:17;;;;;;;5.93;5.33;;;15.50;99.90;;;;;;1949188;72;21085;-76
2021/04/30 11:28:45;;;;;;;;;;;15.60;99.10;;;;;;1955180;72;21108;-75
2021/04/30 11:31:27;;;;;;;8.63;5.75;;;15.50;99.40;;;;;;1955023;72;20205;-75
2021/04/30 11:34:16;;;;;;;5.75;5.15;;;15.40;99.50;;;;;;1954890;72;21163;-75
2021/04/30 11:36:46;;;;;;;6.20;5.60;;;15.60;99.40;;;;;;1955149;72;21062;-75
2021/04/30 11:39:19;;;;;;;5.70;5.10;;;15.70;98.30;;;;;;1953468;72;21559;-75
2021/04/30 11:41:49;;;;;;;5.85;5.25;;;15.90;97.30;;;;;;1952768;72;21094;-75
2021/04/30 11:44:19;;;;;;;5.72;5.22;;;15.80;98.10;;;;;;1954859;72;21129;-75
2021/04/30 11:47:10;;;;;;;6.55;5.87;;;15.60;98.10;;;;;;1957455;72;21107;-75
2021/04/30 11:49:35;;;;;;;5.78;5.20;;;15.20;98.10;;;;;;1950947;72;21638;-75
2021/04/30 11:52:04;;;;;;;5.80;5.05;;;15.20;97.30;;;;;;1959555;72;21661;-76
2021/04/30 11:54:36;;;;;;;6.12;4.70;;;15.10;97.20;;;;;;1948803;72;21090;-76
2021/04/30 11:57:07;;;;;;;6.00;5.40;;;15.20;97.50;;;;;;1954082;72;21084;-76
2021/04/30 11:59:37;;;;;;;6.20;5.60;;;15.30;98.70;;;;;;1948947;72;21148;-76
2021/04/30 12:02:08;;;;;;;6.80;5.28;;;15.40;98.00;;;;;;1954452;72;21046;-75
2021/04/30 12:04:44;;;;;;;6.40;5.78;;;15.50;98.20;;;;;;1954822;72;21171;-75
2021/04/30 12:07:17;;;;;;;5.50;5.00;;;15.20;97.00;;;;;;1952463;72;21145;-76
2021/04/30 12:09:45;;;;;;;5.70;5.15;;;15.40;96.70;;;;;;1953932;72;21260;-76
2021/04/30 12:12:21;;;;;;;7.78;5.35;;;15.70;96.70;;;;;;1951669;72;21492;-77
2021/04/30 12:15:00;;;;;;;7.67;4.72;;;15.80;96.50;;;;;;1954189;72;21171;-77
2021/04/30 12:17:33;;;;;;;6.03;5.37;;;16.00;94.90;;;;;;1959057;72;21109;-75
2021/04/30 12:20:23;;;;;;;5.72;5.03;;;16.10;96.60;;;;;;1951558;72;21120;-75
2021/04/30 12:22:56;;;;;;;5.50;5.00;;;16.10;97.10;;;;;;1950650;72;21219;-76
2021/04/30 12:25:32;;;;;;;8.63;4.87;;;15.70;96.20;;;;;;1951793;72;21093;-76
2021/04/30 12:28:17;;;;;;;5.25;4.58;;;15.40;97.20;;;;;;1952496;72;21614;-76
2021/04/30 12:30:46;;;;;;;5.15;4.65;;;15.60;97.40;;;;;;1957242;72;21484;-76
2021/04/30 12:33:31;;;;;;;5.37;4.87;;;15.80;97.20;;;;;;1953868;72;21461;-75
2021/04/30 12:36:13;;;;;;;4.70;4.30;;;15.90;97.40;;;;;;1954746;72;21091;-74
2021/04/30 12:38:43;;;;;;;5.67;4.90;;;16.00;96.20;;;;;;1953295;72;21057;-74
2021/04/30 12:41:14;;;;;;;5.72;5.15;;;16.10;97.00;;;;;;1954028;72;21794;-74
2021/04/30 12:43:42;;;;;;;5.20;4.70;;;16.20;96.40;;;;;;1949713;72;21434;-74